Terminal Aerodrome Forecast
Issued by NWS

Home | Current Version | Previous Version | Text Only | Print | Product List | Glossary On
Versions: 1 2 3 4 5 6 7 8 9 10 11 12 13 14 15 16 17 18
000
FTUS45 KABQ 040521
TAFLVS
TAF
KLVS 040521Z 0406/0506 VRB06KT P6SM FEW060 BKN120
     FM041800 20011G21KT P6SM FEW060
     FM042200 20012G22KT P6SM VCTS SCT060CB SCT120
     FM050100 19010KT P6SM SCT060 BKN120=

USA.gov is the U.S. government's official web portal to all federal, state and local government web resources and services.